Pushkinskiye Gory, Russia
Current Conditions -  °F | °C
As of 11:50 AM on Sunday 23 Nov 2014 (Local Time) from EETU Reporting Station
Moderate Fog Moderate Fog  
Wind Chill: 32°   Ceiling: 200
Heat Index: 32°   Visibility: 0.31mi
Dew Point: 30°   Wind: 3mph
Humidity: 93%   Direction: 200°SSW
Pressure: 30.5"   Gusts: NA
Location:  57.02°N, 28.93°E
Report Text: EETU 230850Z AUTO 20003KT 0500 R26/1100U FZFG OVC002///M00/M01 Q1033
Loading
Personal Weather Stations






























Interactive Weather Map New forecast layout! Learn more

10-Day Weather Forecast

Advertisements
Track Severe Weather on mobile